LOG425 EGNS-EGLL
Flight info
| Callsign | LOG425 |
|---|---|
| Flight time | 0h 42m |
| Altitude | 29000 |
| Route | TIMIS Q39 NOMSU UQ4 WAL UY53 NUGRA |
| Aircraft | E45X/M-SABDFGRW/S |
Departure
| Time | 2026-04-26 12:51 |
|---|---|
| Airport | Isle of Man Airport (EGNS) |
Arrival
| Time | 2026-04-26 13:33 |
|---|---|
| Airport | London Heathrow Airport (EGLL) |
| Time | Latitude | Longitude | Altitude | Speed | Heading |
|---|---|---|---|---|---|
| 2026-04-26 12:28 | 54.08585 | -4.63323 | 5 ft | 0 kts | 43° |
| 2026-04-26 12:44 | 54.08579 | -4.63333 | 4 ft | 2 kts | 43° |
| 2026-04-26 12:45 | 54.08568 | -4.63350 | 4 ft | 2 kts | 43° |
| 2026-04-26 12:45 | 54.08559 | -4.63370 | 4 ft | 2 kts | 79° |
| 2026-04-26 12:45 | 54.08561 | -4.63395 | 4 ft | 2 kts | 121° |
| 2026-04-26 12:45 | 54.08565 | -4.63405 | 4 ft | 0 kts | 134° |
| 2026-04-26 12:48 | 54.08557 | -4.63390 | 4 ft | 3 kts | 133° |
| 2026-04-26 12:48 | 54.08532 | -4.63346 | 4 ft | 6 kts | 137° |
| 2026-04-26 12:48 | 54.08482 | -4.63356 | 4 ft | 9 kts | 210° |
| 2026-04-26 12:48 | 54.08414 | -4.63389 | 4 ft | 11 kts | 169° |
| 2026-04-26 12:49 | 54.08357 | -4.63468 | 4 ft | 12 kts | 258° |
| 2026-04-26 12:49 | 54.08331 | -4.63635 | 4 ft | 16 kts | 251° |
| 2026-04-26 12:49 | 54.08271 | -4.63815 | 4 ft | 19 kts | 240° |
| 2026-04-26 12:49 | 54.08164 | -4.63885 | 4 ft | 12 kts | 149° |
| 2026-04-26 12:50 | 54.08148 | -4.63820 | 4 ft | 0 kts | 84° |
| 2026-04-26 12:50 | 54.08149 | -4.63818 | 4 ft | 1 kts | 84° |
| 2026-04-26 12:50 | 54.08172 | -4.63599 | 4 ft | 58 kts | 79° |
| 2026-04-26 12:51 | 54.08324 | -4.62437 | 5 ft | 138 kts | 78° |
| 2026-04-26 12:51 | 54.08558 | -4.60621 | 398 ft | 175 kts | 77° |
| 2026-04-26 12:51 | 54.08682 | -4.58559 | 1435 ft | 183 kts | 90° |
| 2026-04-26 12:51 | 54.08660 | -4.56180 | 1928 ft | 227 kts | 95° |
| 2026-04-26 12:52 | 54.08017 | -4.53657 | 2934 ft | 248 kts | 131° |
| 2026-04-26 12:52 | 54.06672 | -4.51890 | 4358 ft | 251 kts | 147° |
| 2026-04-26 12:52 | 54.05131 | -4.50661 | 5667 ft | 254 kts | 156° |
| 2026-04-26 12:52 | 54.03462 | -4.49622 | 6678 ft | 261 kts | 159° |
| 2026-04-26 12:53 | 54.01750 | -4.48633 | 7663 ft | 266 kts | 160° |
| 2026-04-26 12:53 | 54.00006 | -4.47644 | 8691 ft | 268 kts | 161° |
| 2026-04-26 12:53 | 53.98242 | -4.46648 | 9675 ft | 271 kts | 162° |
| 2026-04-26 12:53 | 53.96469 | -4.45650 | 10619 ft | 274 kts | 162° |
| 2026-04-26 12:54 | 53.94644 | -4.44625 | 11358 ft | 286 kts | 162° |
| 2026-04-26 12:54 | 53.92706 | -4.43537 | 11975 ft | 301 kts | 163° |
| 2026-04-26 12:54 | 53.90686 | -4.42403 | 12623 ft | 313 kts | 163° |
| 2026-04-26 12:54 | 53.88582 | -4.41210 | 13247 ft | 326 kts | 161° |
| 2026-04-26 12:55 | 53.86627 | -4.39142 | 13824 ft | 344 kts | 138° |
| 2026-04-26 12:55 | 53.85189 | -4.35823 | 14412 ft | 358 kts | 123° |
| 2026-04-26 12:55 | 53.83808 | -4.32315 | 15059 ft | 366 kts | 127° |
| 2026-04-26 12:55 | 53.82335 | -4.28695 | 15838 ft | 370 kts | 127° |
| 2026-04-26 12:56 | 53.80856 | -4.25080 | 16565 ft | 374 kts | 127° |
| 2026-04-26 12:56 | 53.79337 | -4.21375 | 17265 ft | 379 kts | 127° |
| 2026-04-26 12:56 | 53.77830 | -4.17705 | 17937 ft | 383 kts | 127° |
| 2026-04-26 12:56 | 53.76315 | -4.14022 | 18674 ft | 385 kts | 127° |
| 2026-04-26 12:57 | 53.74810 | -4.10367 | 19463 ft | 384 kts | 127° |
| 2026-04-26 12:57 | 53.73284 | -4.06668 | 20247 ft | 383 kts | 127° |
| 2026-04-26 12:57 | 53.71772 | -4.03008 | 20998 ft | 382 kts | 127° |
| 2026-04-26 12:58 | 53.68758 | -3.95730 | 22449 ft | 381 kts | 127° |
| 2026-04-26 12:58 | 53.67245 | -3.92086 | 23156 ft | 381 kts | 127° |
| 2026-04-26 12:58 | 53.65729 | -3.88441 | 23851 ft | 380 kts | 127° |
| 2026-04-26 12:58 | 53.64237 | -3.84859 | 24526 ft | 380 kts | 127° |
| 2026-04-26 12:59 | 53.62722 | -3.81225 | 25230 ft | 379 kts | 127° |
| 2026-04-26 12:59 | 53.61204 | -3.77592 | 25924 ft | 379 kts | 127° |
| 2026-04-26 12:59 | 53.59699 | -3.73994 | 26606 ft | 379 kts | 127° |
| 2026-04-26 12:59 | 53.58201 | -3.70417 | 27292 ft | 378 kts | 128° |
| 2026-04-26 13:00 | 53.56698 | -3.66835 | 27995 ft | 378 kts | 128° |
| 2026-04-26 13:00 | 53.55172 | -3.63200 | 28706 ft | 378 kts | 128° |
| 2026-04-26 13:00 | 53.53661 | -3.59611 | 29317 ft | 382 kts | 129° |
| 2026-04-26 13:00 | 53.52104 | -3.55918 | 29412 ft | 399 kts | 129° |
| 2026-04-26 13:01 | 53.50457 | -3.52015 | 29445 ft | 418 kts | 129° |
| 2026-04-26 13:01 | 53.48747 | -3.47970 | 29466 ft | 437 kts | 129° |
| 2026-04-26 13:01 | 53.46984 | -3.43598 | 29462 ft | 458 kts | 124° |
| 2026-04-26 13:01 | 53.45551 | -3.38770 | 29355 ft | 472 kts | 115° |
| 2026-04-26 13:02 | 53.43068 | -3.28641 | 29241 ft | 464 kts | 116° |
| 2026-04-26 13:02 | 53.40560 | -3.18790 | 29272 ft | 454 kts | 116° |
| 2026-04-26 13:03 | 53.37551 | -3.09660 | 29306 ft | 443 kts | 131° |
| 2026-04-26 13:03 | 53.33861 | -3.01444 | 29306 ft | 441 kts | 130° |
| 2026-04-26 13:04 | 53.30227 | -2.93302 | 29305 ft | 439 kts | 130° |
| 2026-04-26 13:04 | 53.26564 | -2.85115 | 29303 ft | 438 kts | 130° |
| 2026-04-26 13:05 | 53.22907 | -2.76969 | 29301 ft | 437 kts | 130° |
| 2026-04-26 13:05 | 53.19277 | -2.68910 | 29303 ft | 436 kts | 130° |
| 2026-04-26 13:06 | 53.17443 | -2.64848 | 29310 ft | 447 kts | 130° |
| 2026-04-26 13:06 | 53.15539 | -2.60650 | 29309 ft | 457 kts | 130° |
| 2026-04-26 13:06 | 53.11803 | -2.51991 | 29307 ft | 464 kts | 126° |
| 2026-04-26 13:07 | 53.08175 | -2.43088 | 29307 ft | 466 kts | 127° |
| 2026-04-26 13:07 | 53.04463 | -2.34209 | 29305 ft | 467 kts | 131° |
| 2026-04-26 13:08 | 52.99793 | -2.26912 | 29305 ft | 459 kts | 149° |
| 2026-04-26 13:08 | 52.94394 | -2.21362 | 29308 ft | 459 kts | 152° |
| 2026-04-26 13:09 | 52.88989 | -2.15726 | 29313 ft | 460 kts | 152° |
| 2026-04-26 13:09 | 52.83650 | -2.10150 | 29254 ft | 438 kts | 152° |
| 2026-04-26 13:10 | 52.81123 | -2.07519 | 28853 ft | 424 kts | 152° |
| 2026-04-26 13:10 | 52.78655 | -2.04954 | 28459 ft | 416 kts | 152° |
| 2026-04-26 13:10 | 52.76195 | -2.02401 | 28064 ft | 413 kts | 152° |
| 2026-04-26 13:10 | 52.73774 | -1.99890 | 27582 ft | 409 kts | 152° |
| 2026-04-26 13:11 | 52.71386 | -1.97416 | 27138 ft | 402 kts | 152° |
| 2026-04-26 13:11 | 52.69023 | -1.94973 | 26790 ft | 400 kts | 152° |
| 2026-04-26 13:11 | 52.66666 | -1.92538 | 26444 ft | 398 kts | 152° |
| 2026-04-26 13:11 | 52.64323 | -1.90121 | 26123 ft | 397 kts | 151° |
| 2026-04-26 13:12 | 52.61972 | -1.87699 | 25821 ft | 395 kts | 151° |
| 2026-04-26 13:12 | 52.59623 | -1.85282 | 25518 ft | 394 kts | 151° |
| 2026-04-26 13:12 | 52.57316 | -1.82910 | 25219 ft | 392 kts | 151° |
| 2026-04-26 13:12 | 52.55007 | -1.80540 | 24936 ft | 391 kts | 151° |
| 2026-04-26 13:13 | 52.52744 | -1.78220 | 24779 ft | 385 kts | 151° |
| 2026-04-26 13:13 | 52.50483 | -1.75904 | 24619 ft | 380 kts | 150° |
| 2026-04-26 13:13 | 52.48254 | -1.73625 | 24462 ft | 376 kts | 150° |
| 2026-04-26 13:13 | 52.45327 | -1.70635 | 24288 ft | 371 kts | 150° |
| 2026-04-26 13:14 | 52.43852 | -1.69131 | 24207 ft | 369 kts | 150° |
| 2026-04-26 13:14 | 52.41695 | -1.66933 | 24089 ft | 366 kts | 150° |
| 2026-04-26 13:14 | 52.39546 | -1.64745 | 23975 ft | 363 kts | 150° |
| 2026-04-26 13:14 | 52.37435 | -1.62599 | 23866 ft | 360 kts | 150° |
| 2026-04-26 13:15 | 52.35295 | -1.60425 | 23757 ft | 358 kts | 150° |
| 2026-04-26 13:15 | 52.33204 | -1.58305 | 23651 ft | 356 kts | 150° |
| 2026-04-26 13:15 | 52.31110 | -1.56183 | 23544 ft | 354 kts | 150° |
| 2026-04-26 13:15 | 52.29014 | -1.54062 | 23441 ft | 353 kts | 150° |
| 2026-04-26 13:16 | 52.26953 | -1.51978 | 23331 ft | 352 kts | 150° |
| 2026-04-26 13:16 | 52.24834 | -1.49840 | 22886 ft | 363 kts | 150° |
| 2026-04-26 13:16 | 52.22667 | -1.47654 | 22353 ft | 369 kts | 150° |
| 2026-04-26 13:16 | 52.20615 | -1.45198 | 21771 ft | 366 kts | 141° |
| 2026-04-26 13:17 | 52.16832 | -1.39885 | 20568 ft | 357 kts | 141° |
| 2026-04-26 13:17 | 52.14970 | -1.37285 | 19959 ft | 353 kts | 141° |
| 2026-04-26 13:18 | 52.11279 | -1.32141 | 18680 ft | 346 kts | 142° |
| 2026-04-26 13:18 | 52.08843 | -1.28754 | 17815 ft | 342 kts | 142° |
| 2026-04-26 13:18 | 52.05857 | -1.24608 | 16741 ft | 338 kts | 142° |
| 2026-04-26 13:19 | 52.04089 | -1.22156 | 16098 ft | 335 kts | 142° |
| 2026-04-26 13:19 | 52.02346 | -1.19742 | 15524 ft | 330 kts | 142° |
| 2026-04-26 13:19 | 52.00619 | -1.17352 | 15166 ft | 319 kts | 142° |
| 2026-04-26 13:19 | 51.98964 | -1.15064 | 14810 ft | 309 kts | 142° |
| 2026-04-26 13:20 | 51.96811 | -1.12092 | 14339 ft | 299 kts | 142° |
| 2026-04-26 13:20 | 51.95755 | -1.10635 | 14104 ft | 295 kts | 142° |
| 2026-04-26 13:20 | 51.94177 | -1.08461 | 13768 ft | 300 kts | 142° |
| 2026-04-26 13:20 | 51.92593 | -1.06279 | 13431 ft | 297 kts | 142° |
| 2026-04-26 13:21 | 51.91050 | -1.04156 | 13147 ft | 291 kts | 142° |
| 2026-04-26 13:21 | 51.89520 | -1.02050 | 12909 ft | 287 kts | 142° |
| 2026-04-26 13:21 | 51.88016 | -0.99985 | 12675 ft | 283 kts | 142° |
| 2026-04-26 13:21 | 51.86522 | -0.97934 | 12441 ft | 279 kts | 142° |
| 2026-04-26 13:22 | 51.85157 | -0.95697 | 12210 ft | 284 kts | 124° |
| 2026-04-26 13:22 | 51.84255 | -0.92851 | 11837 ft | 285 kts | 117° |
| 2026-04-26 13:22 | 51.83374 | -0.89961 | 11223 ft | 291 kts | 117° |
| 2026-04-26 13:22 | 51.82482 | -0.87038 | 10611 ft | 296 kts | 117° |
| 2026-04-26 13:23 | 51.81562 | -0.84050 | 9988 ft | 299 kts | 120° |
| 2026-04-26 13:23 | 51.80222 | -0.81563 | 9461 ft | 292 kts | 148° |
| 2026-04-26 13:23 | 51.78393 | -0.80473 | 9150 ft | 279 kts | 176° |
| 2026-04-26 13:23 | 51.75852 | -0.80341 | 8673 ft | 271 kts | 165° |
| 2026-04-26 13:24 | 51.74693 | -0.79701 | 8359 ft | 261 kts | 164° |
| 2026-04-26 13:24 | 51.72970 | -0.79071 | 7889 ft | 249 kts | 170° |
| 2026-04-26 13:24 | 51.71315 | -0.78588 | 7635 ft | 236 kts | 171° |
| 2026-04-26 13:24 | 51.69696 | -0.78142 | 7366 ft | 235 kts | 171° |
| 2026-04-26 13:25 | 51.68085 | -0.77706 | 7096 ft | 234 kts | 171° |
| 2026-04-26 13:25 | 51.66492 | -0.77277 | 6828 ft | 234 kts | 171° |
| 2026-04-26 13:25 | 51.64883 | -0.76845 | 6556 ft | 233 kts | 171° |
| 2026-04-26 13:25 | 51.62777 | -0.76280 | 6320 ft | 226 kts | 170° |
| 2026-04-26 13:26 | 51.61746 | -0.76003 | 6217 ft | 223 kts | 170° |
| 2026-04-26 13:26 | 51.60220 | -0.75594 | 6068 ft | 223 kts | 170° |
| 2026-04-26 13:26 | 51.58689 | -0.75221 | 5923 ft | 221 kts | 178° |
| 2026-04-26 13:26 | 51.57246 | -0.75808 | 5790 ft | 215 kts | 207° |
| 2026-04-26 13:27 | 51.55926 | -0.76941 | 5641 ft | 211 kts | 207° |
| 2026-04-26 13:27 | 51.54631 | -0.78043 | 5476 ft | 209 kts | 207° |
| 2026-04-26 13:27 | 51.53291 | -0.78947 | 5023 ft | 211 kts | 191° |
| 2026-04-26 13:27 | 51.51367 | -0.79239 | 4569 ft | 203 kts | 180° |
| 2026-04-26 13:28 | 51.50441 | -0.79185 | 4368 ft | 199 kts | 169° |
| 2026-04-26 13:28 | 51.49151 | -0.78488 | 4076 ft | 193 kts | 149° |
| 2026-04-26 13:28 | 51.48268 | -0.76971 | 3806 ft | 187 kts | 116° |
| 2026-04-26 13:28 | 51.47853 | -0.75013 | 3517 ft | 184 kts | 101° |
| 2026-04-26 13:29 | 51.47734 | -0.73024 | 3281 ft | 177 kts | 94° |
| 2026-04-26 13:29 | 51.47691 | -0.71111 | 3039 ft | 161 kts | 92° |
| 2026-04-26 13:29 | 51.47678 | -0.69392 | 2741 ft | 147 kts | 91° |
| 2026-04-26 13:29 | 51.47677 | -0.67807 | 2515 ft | 143 kts | 91° |
| 2026-04-26 13:30 | 51.47680 | -0.66219 | 2309 ft | 136 kts | 91° |
| 2026-04-26 13:30 | 51.47686 | -0.64702 | 2139 ft | 136 kts | 91° |
| 2026-04-26 13:30 | 51.47693 | -0.63200 | 1960 ft | 133 kts | 91° |
| 2026-04-26 13:30 | 51.47699 | -0.61709 | 1765 ft | 132 kts | 91° |
| 2026-04-26 13:31 | 51.47706 | -0.60232 | 1573 ft | 131 kts | 91° |
| 2026-04-26 13:31 | 51.47712 | -0.58787 | 1390 ft | 130 kts | 91° |
| 2026-04-26 13:31 | 51.47718 | -0.57330 | 1209 ft | 129 kts | 90° |
| 2026-04-26 13:31 | 51.47726 | -0.55410 | 970 ft | 128 kts | 90° |
| 2026-04-26 13:32 | 51.47731 | -0.54463 | 854 ft | 128 kts | 90° |
| 2026-04-26 13:32 | 51.47736 | -0.53014 | 678 ft | 128 kts | 90° |
| 2026-04-26 13:32 | 51.47756 | -0.51584 | 513 ft | 127 kts | 87° |
| 2026-04-26 13:32 | 51.47762 | -0.50177 | 334 ft | 128 kts | 90° |
| 2026-04-26 13:33 | 51.47761 | -0.48746 | 128 ft | 126 kts | 89° |
| 2026-04-26 13:33 | 51.47753 | -0.47474 | 90 ft | 97 kts | 88° |
| 2026-04-26 13:33 | 51.47755 | -0.46570 | 90 ft | 73 kts | 89° |
| 2026-04-26 13:33 | 51.47655 | -0.46087 | 90 ft | 5 kts | 146° |
| 2026-04-26 13:34 | 51.47643 | -0.46075 | 90 ft | 1 kts | 146° |
| 2026-04-26 13:34 | 51.47625 | -0.46058 | 90 ft | 4 kts | 157° |
| 2026-04-26 13:34 | 51.47580 | -0.46067 | 90 ft | 8 kts | 203° |
| 2026-04-26 13:34 | 51.47537 | -0.46090 | 90 ft | 10 kts | 202° |
| 2026-04-26 13:35 | 51.47454 | -0.46155 | 90 ft | 8 kts | 156° |
| 2026-04-26 13:35 | 51.47409 | -0.46204 | 90 ft | 5 kts | 236° |
| 2026-04-26 13:35 | 51.47386 | -0.46258 | 90 ft | 0 kts | 234° |